Terminal Aerodrome Forecast
Issued by NWS Greer, SC

Home | Current Version | Previous Version | Text Only | Print | Product List | Glossary On
Versions: 1 2 3 4 5 6 7 8 9 10 11 12 13 14 15 16
000
FTUS42 KGSP 201737
TAFAVL
TAF
KAVL 201737Z 2018/2118 35006KT P6SM VCSH SCT045
     FM210100 33004KT P6SM FEW250
     FM211000 00000KT 4SM BR SCT003
      TEMPO 2111/2113 2SM BR
     FM211300 35005KT P6SM SCT035=

USA.gov is the U.S. government's official web portal to all federal, state and local government web resources and services.